Main page
METAR-TAF:

METAR-TAF

Airports :

Begumpet Airport

Hyderabad, India

latitude: 17-27N, longitude: 078-28E, elevation: 530 m

Current weather observation

The report was made 11 hours and 29 minutes ago, at 16:00 UTC
Calm wind
Temperature 22°C
Humidity 83%
Pressure 1017 hPa
Visibility: 5000 m
mist

METAR: VOHY 101600Z 00000KT 5000 BR NSC 22/19 Q1017 NOSIG

Time: 08:59 (03:29 UTC)

Forecast

The report was made 4 hours and 29 minutes ago, at 23:00 UTC
Forecast valid from 11 at 00 UTC to 11 at 09 UTC
Wind 5 kt from the East/Southeast
Visibility: 3000 m
Scattered clouds at a height of 1500 ft
mist
Temporary
from 11 at 00 UTC to 11 at 04 UTC
Wind 3 kt from variable directions
Visibility: 1500 m
Broken clouds at a height of 1000 ft
mist
Becoming
from 11 at 07 UTC to 11 at 09 UTC
Visibility: 5000 m
Scattered clouds at a height of 1500 ft
Scattered clouds at a height of 2500 ft
haze, rain

TAF: VOHY 102300Z 1100/1109 11005KT 3000 BR SCT015 TEMPO 1100/1104 VRB03KT 1500 BR BKN010 BECMG 1107/1109 5000 HZ RA SCT015 SCT025

Weather observations and forecasts of more than 4000 airports (METAR and TAF reports).

The available stations are represented by yellow and red dots on the map.

Hover mouse over dot to see the name of the station.

Then click to see weather observations and forecasts.

To change the map : click on the green buttons with a black cross to zoom in, on the green button with a dash to zoom out, or on the green arrows for adjacent maps.


METAR-TAF: